Time;durP1;ratioP1;P1;durP2;ratioP2;P2;SDS_P1;SDS_P2;PMS_P1;PMS_P2;Temp;Humidity;BMP_temperature;BMP_pressure;BME280_temperature;BME280_humidity;BME280_pressure;Samples;Min_cycle;Max_cycle;Signal;HPM_P1;HPM_P2
2021/06/16 00:01:37;;;;;;;27.73;10.40;;;;;;;12.92;70.14;99113.05;2221489;80;20967;-66
2021/06/16 00:04:38;;;;;;;23.57;8.80;;;;;;;12.92;70.32;99117.48;2221647;80;20991;-66
2021/06/16 00:07:38;;;;;;;23.62;9.08;;;;;;;12.90;69.88;99116.27;2221729;80;21442;-65
2021/06/16 00:10:39;;;;;;;29.98;11.28;;;;;;;12.91;70.19;99116.61;2221834;80;21521;-64
2021/06/16 00:13:39;;;;;;;26.07;11.18;;;;;;;12.91;70.11;99110.52;2221807;80;20959;-65
2021/06/16 00:16:41;;;;;;;24.50;10.03;;;;;;;12.91;70.31;99107.89;2221747;79;21002;-65
2021/06/16 00:19:42;;;;;;;;;;;;;;;12.88;70.30;99105.45;2224523;80;21019;-65
2021/06/16 00:22:42;;;;;;;29.32;13.00;;;;;;;12.84;70.46;99107.44;2221642;79;20096;-65
2021/06/16 00:25:43;;;;;;;27.60;11.22;;;;;;;12.77;70.53;99108.33;2221577;80;21509;-65
2021/06/16 00:28:44;;;;;;;26.25;10.63;;;;;;;12.76;70.46;99115.02;2221603;80;20995;-65
2021/06/16 00:31:44;;;;;;;25.17;10.78;;;;;;;12.75;70.66;99118.58;2221138;80;20979;-64
2021/06/16 00:34:44;;;;;;;23.67;9.35;;;;;;;12.73;70.48;99112.55;2221548;80;21074;-65
2021/06/16 00:37:45;;;;;;;26.62;10.35;;;;;;;12.83;70.70;99113.67;2221364;80;21010;-64
2021/06/16 00:40:46;;;;;;;24.77;9.98;;;;;;;12.84;70.68;99115.33;2221534;80;21010;-64
2021/06/16 00:43:46;;;;;;;24.75;10.18;;;;;;;12.83;70.92;99111.86;2221812;80;20960;-64
2021/06/16 00:46:46;;;;;;;22.25;9.10;;;;;;;12.81;70.74;99126.06;2221473;79;20995;-64
2021/06/16 00:49:47;;;;;;;22.77;8.25;;;;;;;12.76;70.86;99129.01;2221691;80;21509;-64
2021/06/16 00:52:48;;;;;;;21.45;8.20;;;;;;;12.63;70.83;99128.12;2221669;80;21029;-64
2021/06/16 00:55:48;;;;;;;14.63;4.90;;;;;;;12.47;71.34;99130.91;2221682;80;21039;-65
2021/06/16 00:58:49;;;;;;;18.02;6.37;;;;;;;12.35;70.84;99119.35;2221468;80;21026;-64
2021/06/16 01:01:49;;;;;;;22.25;8.33;;;;;;;12.21;71.65;99122.88;2221723;80;20982;-66
2021/06/16 01:04:50;;;;;;;23.87;8.63;;;;;;;12.16;71.36;99124.11;2221595;80;20920;-65
2021/06/16 01:07:50;;;;;;;22.82;9.30;;;;;;;12.17;71.78;99127.09;2221425;80;20951;-65
2021/06/16 01:10:50;;;;;;;25.30;10.38;;;;;;;12.14;71.81;99126.84;2221633;80;21542;-65
2021/06/16 01:13:51;;;;;;;25.10;10.43;;;;;;;12.15;72.03;99119.30;2221472;80;20959;-64
2021/06/16 01:16:51;;;;;;;24.95;10.58;;;;;;;12.15;71.89;99111.41;2221568;80;20998;-64
2021/06/16 01:19:52;;;;;;;25.72;9.80;;;;;;;12.17;71.75;99111.31;2221643;80;21019;-65
2021/06/16 01:22:52;;;;;;;23.47;9.63;;;;;;;12.14;72.10;99116.31;2221565;79;21015;-64
2021/06/16 01:25:53;;;;;;;26.37;10.05;;;;;;;12.10;71.97;99112.19;2221583;80;21015;-63
2021/06/16 01:28:53;;;;;;;24.75;9.55;;;;;;;12.10;72.09;99113.50;2221682;79;21534;-67
2021/06/16 01:31:54;;;;;;;22.65;9.75;;;;;;;12.13;71.93;99113.30;2221586;80;21454;-66
2021/06/16 01:34:54;;;;;;;23.20;8.95;;;;;;;12.12;72.35;99115.09;2221615;80;20963;-65
2021/06/16 01:37:55;;;;;;;23.10;9.65;;;;;;;12.10;72.17;99105.61;2221524;80;20971;-64
2021/06/16 01:40:55;;;;;;;26.60;10.18;;;;;;;12.09;71.94;99110.48;2221286;80;20972;-63
2021/06/16 01:43:56;;;;;;;25.37;10.85;;;;;;;12.05;72.26;99107.67;2221456;79;21037;-64
2021/06/16 01:46:56;;;;;;;25.77;10.80;;;;;;;12.03;72.35;99099.05;2221526;80;21030;-64
2021/06/16 01:49:57;;;;;;;24.80;10.58;;;;;;;11.96;72.32;99109.92;2221613;80;21075;-65
2021/06/16 01:52:58;;;;;;;23.00;9.50;;;;;;;11.90;72.64;99110.28;2220958;80;21664;-64
2021/06/16 01:55:58;;;;;;;20.45;7.60;;;;;;;11.84;73.12;99110.67;2221781;80;20963;-64
2021/06/16 01:58:58;;;;;;;22.95;9.55;;;;;;;11.82;72.88;99109.91;2221701;80;21055;-67
2021/06/16 02:01:59;;;;;;;23.50;9.68;;;;;;;11.76;72.80;99108.98;2221565;80;20943;-64
2021/06/16 02:04:59;;;;;;;23.62;9.83;;;;;;;11.75;72.71;99113.41;2221591;80;21442;-64
2021/06/16 02:08:00;;;;;;;25.90;11.30;;;;;;;11.72;72.73;99111.41;2221516;79;21472;-70
2021/06/16 02:11:00;;;;;;;23.42;9.98;;;;;;;11.70;72.96;99110.20;2221482;80;20939;-63
2021/06/16 02:14:01;;;;;;;25.40;10.35;;;;;;;11.70;73.02;99106.25;2221383;80;20967;-63
2021/06/16 02:17:01;;;;;;;25.15;9.83;;;;;;;11.83;73.17;99110.29;2221439;79;20999;-65
2021/06/16 02:20:02;;;;;;;25.15;11.20;;;;;;;11.84;72.85;99113.75;2221644;80;21446;-65
2021/06/16 02:23:02;;;;;;;24.65;9.25;;;;;;;11.78;73.08;99113.69;2221174;80;21054;-63
2021/06/16 02:26:03;;;;;;;22.70;9.53;;;;;;;11.76;72.74;99115.06;2221551;80;21580;-63
2021/06/16 02:29:03;;;;;;;24.10;10.43;;;;;;;11.64;73.03;99114.52;2221603;80;20975;-63
2021/06/16 02:32:04;;;;;;;25.23;10.00;;;;;;;11.55;73.18;99115.06;2221550;80;20967;-66
2021/06/16 02:35:04;;;;;;;22.42;9.20;;;;;;;11.50;73.42;99110.09;2221430;80;21010;-69
2021/06/16 02:38:04;;;;;;;29.48;9.50;;;;;;;11.47;73.22;99113.39;2221705;80;20931;-65
2021/06/16 02:41:05;;;;;;;24.07;8.73;;;;;;;11.47;73.33;99110.77;2221867;79;20936;-67
2021/06/16 02:44:05;;;;;;;22.65;9.53;;;;;;;11.46;73.36;99113.00;2221550;80;21126;-67
2021/06/16 02:47:06;;;;;;;22.48;9.45;;;;;;;11.49;73.49;99114.96;2221544;80;21461;-68
2021/06/16 02:50:06;;;;;;;23.32;10.18;;;;;;;11.53;73.61;99111.22;2221499;80;20987;-69
2021/06/16 02:53:08;;;;;;;23.25;10.28;;;;;;;11.59;73.46;99112.62;2221414;80;21015;-68
2021/06/16 02:56:08;;;;;;;26.57;10.73;;;;;;;11.63;73.27;99114.14;2221703;80;21034;-67
2021/06/16 02:59:10;;;;;;;23.95;9.43;;;;;;;11.62;73.24;99113.75;2221701;80;21002;-69
2021/06/16 03:02:11;;;;;;;;;;;;;;;11.63;73.42;99115.45;2224135;80;21002;-66
2021/06/16 03:05:11;;;;;;;24.15;8.10;;;;;;;11.64;73.62;99119.77;2221634;79;20386;-66
2021/06/16 03:08:12;;;;;;;21.45;7.67;;;;;;;11.61;73.64;99122.59;2221423;80;20987;-66
2021/06/16 03:11:12;;;;;;;20.43;7.83;;;;;;;11.58;73.32;99125.41;2221388;80;20967;-64
2021/06/16 03:14:13;;;;;;;22.73;7.83;;;;;;;11.63;73.30;99117.24;2221691;80;21015;-65
2021/06/16 03:17:13;;;;;;;20.52;7.75;;;;;;;11.71;73.42;99125.03;2221667;80;20968;-65
2021/06/16 03:20:14;;;;;;;21.05;7.90;;;;;;;11.70;73.26;99125.97;2221618;80;21003;-64
2021/06/16 03:23:14;;;;;;;21.90;8.15;;;;;;;11.73;73.37;99125.77;2221356;79;21446;-65
2021/06/16 03:26:14;;;;;;;33.45;18.70;;;;;;;11.75;73.43;99126.54;2221414;80;21466;-65
2021/06/16 03:29:15;;;;;;;30.37;13.28;;;;;;;11.84;73.66;99126.89;2221451;80;21071;-64
2021/06/16 03:32:15;;;;;;;30.00;15.08;;;;;;;11.91;73.51;99126.44;2221707;80;20948;-64
2021/06/16 03:35:16;;;;;;;27.48;12.43;;;;;;;12.02;73.54;99129.73;2223820;78;20964;-65
2021/06/16 03:38:16;;;;;;;24.90;10.28;;;;;;;12.13;73.53;99122.50;2201927;78;21439;-64
2021/06/16 03:41:17;;;;;;;24.85;10.80;;;;;;;12.25;73.83;99124.34;2233329;80;21069;-64
2021/06/16 03:44:18;;;;;;;23.60;9.48;;;;;;;12.32;73.58;99122.66;2233645;80;21365;-64
2021/06/16 03:47:18;;;;;;;24.72;9.40;;;;;;;12.49;73.24;99134.27;2233762;80;21056;-67
2021/06/16 03:50:19;;;;;;;20.65;8.58;;;;;;;12.56;73.05;99135.56;2233775;80;21034;-64
2021/06/16 03:53:20;;;;;;;21.40;7.95;;;;;;;12.59;72.87;99132.72;2233691;80;21436;-63
2021/06/16 03:56:20;;;;;;;22.20;8.88;;;;;;;12.65;72.73;99134.13;2233318;80;21034;-64
2021/06/16 03:59:21;;;;;;;22.13;8.65;;;;;;;12.84;72.71;99139.02;2233992;80;20973;-66
2021/06/16 04:02:21;;;;;;;20.92;8.63;;;;;;;12.99;72.56;99135.39;2233950;80;20961;-67
2021/06/16 04:05:22;;;;;;;21.77;9.03;;;;;;;13.09;72.61;99136.11;2233835;80;21073;-66
2021/06/16 04:08:22;;;;;;;23.42;9.13;;;;;;;13.14;72.83;99131.37;2233680;80;21488;-66
2021/06/16 04:11:23;;;;;;;23.90;10.38;;;;;;;13.28;73.34;99129.14;2233793;80;21017;-66
2021/06/16 04:14:23;;;;;;;23.27;8.95;;;;;;;13.49;73.42;99126.39;2233741;80;21516;-69
2021/06/16 04:17:24;;;;;;;26.97;10.10;;;;;;;13.64;73.59;99120.53;2233656;80;20964;-66
2021/06/16 04:20:24;;;;;;;25.17;9.63;;;;;;;13.89;73.06;99125.41;2233608;80;20978;-69
2021/06/16 04:23:25;;;;;;;24.85;10.05;;;;;;;14.11;72.81;99130.03;2233675;80;21065;-65
2021/06/16 04:26:25;;;;;;;26.40;10.53;;;;;;;14.31;72.29;99129.94;2233342;79;21036;-65
2021/06/16 04:29:26;;;;;;;24.60;10.45;;;;;;;14.49;72.73;99129.55;2233750;80;20982;-63
2021/06/16 04:32:26;;;;;;;24.52;11.10;;;;;;;14.64;72.62;99137.72;2233683;80;21543;-64
2021/06/16 04:35:27;;;;;;;25.55;10.28;;;;;;;14.90;72.35;99142.40;2233750;80;21520;-69
2021/06/16 04:38:28;;;;;;;23.67;10.30;;;;;;;15.13;72.29;99141.63;2233817;80;20930;-71
2021/06/16 04:41:29;;;;;;;22.10;10.27;;;;;;;15.28;71.83;99140.98;2232209;80;21012;-68
2021/06/16 04:44:29;;;;;;;25.60;11.08;;;;;;;15.48;72.17;99140.79;2230227;80;21017;-63
2021/06/16 04:47:30;;;;;;;27.37;11.18;;;;;;;15.59;71.78;99142.13;2231023;80;20996;-64
2021/06/16 04:50:30;;;;;;;27.87;12.13;;;;;;;15.72;71.33;99135.42;2231933;80;21075;-70
2021/06/16 04:53:30;;;;;;;26.30;12.05;;;;;;;15.87;71.27;99140.02;2232126;80;20969;-64
2021/06/16 04:56:31;;;;;;;25.10;11.30;;;;;;;16.00;71.11;99136.77;2232826;80;21148;-67
2021/06/16 04:59:31;;;;;;;26.35;11.63;;;;;;;16.07;71.08;99142.42;2233797;80;20953;-65
2021/06/16 05:02:32;;;;;;;25.50;10.45;;;;;;;16.13;71.05;99137.96;2233445;80;21579;-66
2021/06/16 05:05:32;;;;;;;24.23;11.12;;;;;;;16.19;70.79;99136.17;2233639;80;21468;-64
2021/06/16 05:08:33;;;;;;;25.00;11.08;;;;;;;16.25;70.85;99137.00;2233622;80;20997;-63
2021/06/16 05:11:33;;;;;;;27.50;12.37;;;;;;;16.43;70.70;99136.02;2233619;80;21008;-65
2021/06/16 05:14:33;;;;;;;27.02;12.60;;;;;;;16.71;71.10;99140.39;2233634;80;20977;-63
2021/06/16 05:17:34;;;;;;;30.72;13.20;;;;;;;16.98;70.55;99141.75;2233769;80;20981;-66
2021/06/16 05:20:34;;;;;;;27.70;13.13;;;;;;;17.33;70.29;99143.80;2233937;80;20965;-64
2021/06/16 05:23:35;;;;;;;26.05;13.08;;;;;;;17.68;69.71;99145.25;2233613;80;21000;-65
2021/06/16 05:26:35;;;;;;;28.25;12.93;;;;;;;18.04;69.42;99145.23;2233643;80;20994;-69
2021/06/16 05:29:36;;;;;;;25.75;11.90;;;;;;;18.39;69.79;99140.45;2233494;80;21563;-67
2021/06/16 05:32:36;;;;;;;26.00;12.88;;;;;;;18.83;67.94;99148.92;2233626;80;20981;-63
2021/06/16 05:35:37;;;;;;;27.27;13.38;;;;;;;19.12;67.33;99154.30;2233651;80;20973;-63
2021/06/16 05:38:37;;;;;;;27.13;13.58;;;;;;;19.45;66.77;99156.16;2233301;80;21013;-63
2021/06/16 05:41:38;;;;;;;25.27;12.60;;;;;;;19.78;66.79;99156.63;2233863;80;21001;-64
2021/06/16 05:44:38;;;;;;;28.23;13.65;;;;;;;20.08;65.65;99156.06;2233744;80;20966;-64
2021/06/16 05:47:39;;;;;;;26.07;13.28;;;;;;;20.36;65.35;99157.42;2233701;80;21057;-63
2021/06/16 05:50:39;;;;;;;28.67;13.20;;;;;;;20.57;64.48;99165.14;2233726;80;20984;-64
2021/06/16 05:53:40;;;;;;;26.48;11.95;;;;;;;20.80;63.83;99169.58;2233543;80;21439;-68
2021/06/16 05:56:40;;;;;;;29.15;11.43;;;;;;;20.92;62.06;99165.71;2233492;80;20986;-65
2021/06/16 05:59:41;;;;;;;27.05;11.78;;;;;;;21.15;61.72;99169.26;2233873;80;21001;-64
2021/06/16 06:02:41;;;;;;;23.83;11.30;;;;;;;21.44;60.52;99170.83;2233843;80;20961;-65
2021/06/16 06:05:41;;;;;;;25.82;11.93;;;;;;;21.74;61.09;99169.56;2233492;80;20957;-64
2021/06/16 06:08:42;;;;;;;26.03;12.27;;;;;;;22.08;59.37;99169.25;2233803;80;21016;-64
2021/06/16 06:11:42;;;;;;;27.80;11.93;;;;;;;22.24;57.58;99172.01;2233947;80;20996;-64
2021/06/16 06:14:43;;;;;;;25.27;11.47;;;;;;;22.45;58.64;99169.44;2234208;80;20989;-64
2021/06/16 06:17:43;;;;;;;25.90;11.77;;;;;;;22.71;57.90;99169.34;2233960;80;21017;-64
2021/06/16 06:20:44;;;;;;;25.33;10.97;;;;;;;23.04;58.30;99169.40;2233967;80;20990;-64
2021/06/16 06:23:44;;;;;;;28.50;11.80;;;;;;;23.33;56.77;99169.44;2233842;80;21001;-64
2021/06/16 06:26:44;;;;;;;24.67;11.07;;;;;;;23.62;56.56;99176.97;2233455;80;21552;-64
2021/06/16 06:29:45;;;;;;;26.40;10.77;;;;;;;23.87;56.06;99177.78;2233824;80;21479;-65
2021/06/16 06:32:45;;;;;;;27.50;10.40;;;;;;;23.96;55.05;99177.25;2233973;80;21009;-64
2021/06/16 06:35:46;;;;;;;25.00;10.57;;;;;;;24.15;54.87;99176.53;2233824;80;20974;-65
2021/06/16 06:38:46;;;;;;;23.33;10.10;;;;;;;24.37;54.24;99168.25;2234099;80;20993;-67
2021/06/16 06:41:47;;;;;;;25.03;9.80;;;;;;;24.70;54.44;99170.28;2234077;80;20969;-64
2021/06/16 06:44:48;;;;;;;26.50;10.00;;;;;;;24.93;52.14;99166.80;2233838;80;21041;-65
2021/06/16 06:47:48;;;;;;;22.17;9.53;;;;;;;25.11;51.32;99171.03;2233945;80;20990;-65
2021/06/16 06:50:49;;;;;;;23.50;8.47;;;;;;;25.10;50.73;99167.52;2233963;80;20945;-65
2021/06/16 06:53:49;;;;;;;21.33;8.33;;;;;;;25.30;50.74;99173.72;2233818;80;21535;-65
2021/06/16 06:56:49;;;;;;;21.13;8.23;;;;;;;25.56;49.33;99168.01;2233624;80;21012;-65
2021/06/16 06:59:50;;;;;;;21.03;7.63;;;;;;;25.84;48.63;99161.49;2233817;80;20984;-64
2021/06/16 07:02:50;;;;;;;23.13;7.90;;;;;;;26.00;47.77;99159.16;2233797;80;21000;-66
2021/06/16 07:05:51;;;;;;;20.10;7.20;;;;;;;26.27;47.79;99155.50;2233956;80;20969;-66
2021/06/16 07:08:51;;;;;;;23.50;7.57;;;;;;;26.65;48.86;99151.80;2234125;80;21012;-66
2021/06/16 07:11:52;;;;;;;23.63;7.70;;;;;;;27.04;46.11;99154.61;2234384;80;21008;-66
2021/06/16 07:14:54;;;;;;;19.97;7.50;;;;;;;27.07;44.52;99157.77;2234281;80;20942;-65
2021/06/16 07:17:54;;;;;;;19.30;7.10;;;;;;;27.05;44.22;99156.28;2205357;80;20970;-72
2021/06/16 07:20:55;;;;;;;21.77;7.47;;;;;;;26.99;44.23;99155.19;2233913;80;21017;-65
2021/06/16 07:23:55;;;;;;;21.40;7.80;;;;;;;27.17;43.86;99161.48;2234279;80;20977;-66
2021/06/16 07:26:56;;;;;;;21.43;6.87;;;;;;;27.27;43.17;99156.59;2233641;80;21009;-66
2021/06/16 07:29:56;;;;;;;20.35;6.85;;;;;;;27.16;42.01;99155.77;2233998;80;21532;-66
2021/06/16 07:32:57;;;;;;;22.07;6.63;;;;;;;27.07;42.04;99156.42;2234103;80;21029;-65
2021/06/16 07:35:57;;;;;;;20.90;6.70;;;;;;;27.17;40.88;99160.63;2234037;80;21093;-68
2021/06/16 07:38:58;;;;;;;18.23;6.87;;;;;;;27.34;41.27;99158.51;2234267;80;20989;-69
2021/06/16 07:41:58;;;;;;;18.27;6.60;;;;;;;27.52;39.86;99156.20;2234228;80;20922;-72
2021/06/16 07:44:59;;;;;;;18.98;6.95;;;;;;;27.56;39.44;99159.35;2233836;80;21070;-65
2021/06/16 07:48:00;;;;;;;18.40;6.80;;;;;;;27.35;39.80;99159.69;2233711;80;21495;-65
2021/06/16 07:51:00;;;;;;;19.10;6.33;;;;;;;27.30;39.76;99166.16;2233915;80;21475;-71
2021/06/16 07:54:01;;;;;;;20.00;7.07;;;;;;;27.30;39.61;99160.25;2233989;80;21660;-66
2021/06/16 07:57:01;;;;;;;19.27;6.70;;;;;;;27.43;39.43;99162.25;2233956;80;21024;-66
2021/06/16 08:00:02;;;;;;;18.27;6.63;;;;;;;27.64;38.89;99161.38;2233978;80;21056;-65
2021/06/16 08:03:02;;;;;;;18.20;6.80;;;;;;;28.03;40.59;99165.91;2234078;80;20977;-66
2021/06/16 08:06:03;;;;;;;21.20;6.42;;;;;;;28.56;40.44;99161.78;2233843;80;21044;-68
2021/06/16 08:09:03;;;;;;;19.87;6.10;;;;;;;28.96;38.47;99157.33;2234209;80;20993;-66
2021/06/16 08:12:04;;;;;;;18.70;6.40;;;;;;;28.91;37.71;99157.66;2234049;80;21025;-74
2021/06/16 08:15:05;;;;;;;18.47;6.17;;;;;;;28.99;37.61;99162.84;2233918;80;21048;-67
2021/06/16 08:18:05;;;;;;;18.53;6.80;;;;;;;29.00;38.12;99162.64;2234085;80;20934;-66
2021/06/16 08:21:06;;;;;;;21.62;6.62;;;;;;;29.21;37.51;99168.38;2233874;80;21460;-67
2021/06/16 08:24:06;;;;;;;18.30;6.20;;;;;;;29.34;36.58;99164.89;2234004;80;21508;-73
2021/06/16 08:27:07;;;;;;;17.70;6.27;;;;;;;29.27;36.71;99164.06;2233806;80;21029;-75
2021/06/16 08:30:07;;;;;;;19.32;6.60;;;;;;;29.45;37.57;99168.86;2233832;80;21043;-74
2021/06/16 08:33:08;;;;;;;18.73;6.47;;;;;;;29.74;37.49;99176.21;2234083;80;21025;-82
2021/06/16 08:36:08;;;;;;;20.90;6.57;;;;;;;29.88;35.54;99175.67;2234022;80;21017;-69
2021/06/16 08:39:09;;;;;;;19.60;6.53;;;;;;;30.01;36.31;99174.81;2234055;80;21623;-75
2021/06/16 08:42:09;;;;;;;22.17;7.03;;;;;;;30.22;35.16;99177.78;2233770;80;21068;-68
2021/06/16 08:45:10;;;;;;;17.87;6.53;;;;;;;30.15;34.93;99179.15;2234054;80;20977;-78
2021/06/16 08:48:10;;;;;;;20.60;6.67;;;;;;;30.21;33.96;99176.97;2234021;80;21547;-66
2021/06/16 08:51:12;;;;;;;18.50;6.20;;;;;;;30.19;34.71;99177.69;2234037;80;21061;-71
2021/06/16 08:54:13;;;;;;;19.80;6.67;;;;;;;30.28;33.94;99174.22;2205395;80;20981;-77
2021/06/16 08:57:13;;;;;;;20.20;6.33;;;;;;;30.17;32.40;99176.23;2233942;80;21015;-85
2021/06/16 09:00:14;;;;;;;19.33;6.63;;;;;;;29.92;34.91;99181.51;2233932;80;21221;-78
2021/06/16 09:03:14;;;;;;;19.73;6.70;;;;;;;30.24;33.96;99177.03;2233845;80;21005;-76
2021/06/16 09:06:15;;;;;;;17.62;6.62;;;;;;;30.29;33.96;99181.83;2234256;80;20962;-66
2021/06/16 09:09:15;;;;;;;18.10;6.00;;;;;;;30.15;33.50;99175.09;2233747;80;21053;-66
2021/06/16 09:12:19;;;;;;;20.83;6.77;;;;;;;29.81;33.19;99181.58;2234155;80;20981;-71
2021/06/16 09:18:56;;;;;;;19.60;6.45;;;;;;;29.42;33.65;99181.40;2168167;82;21598;-85
2021/06/16 09:21:57;;;;;;;19.07;6.50;;;;;;;29.72;34.72;99180.47;2167962;82;21032;-64
2021/06/16 09:24:57;;;;;;;19.25;6.95;;;;;;;29.88;35.18;99183.79;2167690;82;21012;-66
2021/06/16 09:27:57;;;;;;;19.33;6.57;;;;;;;29.80;32.85;99187.52;2167786;82;21107;-65
2021/06/16 09:30:58;;;;;;;21.57;6.47;;;;;;;29.23;34.30;99183.59;2167709;82;21479;-65
2021/06/16 09:33:58;;;;;;;19.40;7.00;;;;;;;28.84;35.75;99181.41;2167658;82;20969;-64
2021/06/16 09:36:59;;;;;;;19.43;7.03;;;;;;;28.65;35.62;99184.36;2167697;82;20984;-64
2021/06/16 09:39:59;;;;;;;18.13;7.03;;;;;;;28.64;35.84;99185.39;2167702;82;21025;-65
2021/06/16 09:43:00;;;;;;;19.80;6.93;;;;;;;29.09;35.23;99186.75;2167949;82;20938;-64
2021/06/16 09:46:00;;;;;;;19.25;6.92;;;;;;;29.33;35.39;99188.88;2167418;82;21128;-83
2021/06/16 09:49:01;;;;;;;19.50;7.50;;;;;;;29.52;35.70;99182.34;2167794;82;21033;-64
2021/06/16 09:52:01;;;;;;;21.00;7.23;;;;;;;29.82;34.58;99188.66;2167696;82;21574;-64
2021/06/16 09:55:02;;;;;;;22.60;7.37;;;;;;;29.70;34.12;99185.77;2167651;82;20977;-64
2021/06/16 09:58:03;;;;;;;21.00;7.80;;;;;;;29.46;35.03;99185.35;2167531;82;21028;-64
2021/06/16 10:01:03;;;;;;;21.52;7.45;;;;;;;29.20;34.08;99185.61;2167705;82;21008;-64
2021/06/16 10:04:04;;;;;;;18.23;6.80;;;;;;;28.85;34.07;99184.95;2167668;82;20949;-64
2021/06/16 10:07:05;;;;;;;20.62;7.20;;;;;;;28.91;35.09;99188.17;2167205;82;21480;-83
2021/06/16 10:10:05;;;;;;;19.83;7.13;;;;;;;29.43;35.09;99180.38;2167689;82;20997;-64
2021/06/16 10:13:06;;;;;;;18.97;6.20;;;;;;;30.02;34.45;99184.07;2167542;82;21028;-64
2021/06/16 10:16:06;;;;;;;19.87;6.53;;;;;;;30.52;36.09;99177.29;2167899;82;21016;-64
2021/06/16 10:19:07;;;;;;;20.85;6.95;;;;;;;31.13;33.61;99165.08;2175820;82;21040;-64
2021/06/16 10:22:07;;;;;;;20.03;6.63;;;;;;;30.92;33.79;99172.48;2177900;82;20957;-64
2021/06/16 10:25:07;;;;;;;20.53;7.27;;;;;;;30.69;34.71;99174.92;2177968;82;21462;-64
2021/06/16 10:28:08;;;;;;;18.20;6.50;;;;;;;30.86;35.03;99169.80;2177832;82;21024;-64
2021/06/16 10:31:08;;;;;;;23.27;6.73;;;;;;;31.58;34.72;99175.80;2177880;82;20980;-65
2021/06/16 10:34:09;;;;;;;19.37;6.20;;;;;;;32.05;31.38;99162.30;2177974;82;20984;-64
2021/06/16 10:37:09;;;;;;;19.70;6.97;;;;;;;31.50;31.58;99165.73;2177997;82;20988;-64
2021/06/16 10:40:09;;;;;;;21.00;7.10;;;;;;;30.79;32.79;99171.22;2177859;82;21050;-83
2021/06/16 10:43:10;;;;;;;22.93;7.87;;;;;;;30.47;32.72;99169.83;2178069;82;21007;-64
2021/06/16 10:46:12;;;;;;;19.23;7.23;;;;;;;30.04;32.99;99174.39;2178144;82;21466;-64
2021/06/16 10:49:13;;;;;;;21.02;7.08;;;;;;;29.44;33.63;99176.64;2177951;82;21048;-78
2021/06/16 10:52:13;;;;;;;22.30;7.70;;;;;;;29.20;34.08;99182.09;2178315;82;20933;-64
2021/06/16 10:55:13;;;;;;;21.27;7.83;;;;;;;29.10;34.51;99182.50;2178023;82;20941;-64
2021/06/16 10:58:14;;;;;;;18.43;6.57;;;;;;;29.07;34.40;99178.04;2178196;82;21499;-64
2021/06/16 11:01:14;;;;;;;18.30;6.60;;;;;;;28.91;34.33;99184.13;2178056;82;21507;-64
2021/06/16 11:04:15;;;;;;;19.00;6.50;;;;;;;28.79;34.55;99177.65;2177862;82;20976;-65
2021/06/16 11:07:16;;;;;;;20.00;6.67;;;;;;;28.73;35.99;99181.99;2177819;82;21054;-64
2021/06/16 11:10:17;;;;;;;19.83;7.33;;;;;;;28.61;35.13;99179.05;2178124;82;21020;-64
2021/06/16 11:13:17;;;;;;;18.47;6.83;;;;;;;28.45;36.01;99187.48;2178196;82;20972;-65
2021/06/16 11:16:17;;;;;;;20.07;7.00;;;;;;;28.30;36.96;99192.50;2178022;82;21442;-64
2021/06/16 11:19:18;;;;;;;20.23;6.35;;;;;;;28.17;37.12;99194.61;2169579;82;21017;-64
2021/06/16 11:22:19;;;;;;;19.40;6.40;;;;;;;28.04;38.28;99192.34;2167955;82;21487;-64
2021/06/16 11:25:20;;;;;;;17.57;6.67;;;;;;;27.96;37.91;99190.09;2167797;82;21490;-64
2021/06/16 11:28:21;;;;;;;22.42;6.97;;;;;;;28.00;38.62;99187.84;2167772;82;21036;-64
2021/06/16 11:31:21;;;;;;;19.17;6.93;;;;;;;27.98;37.81;99183.19;2168181;82;20984;-64
2021/06/16 11:34:22;;;;;;;19.90;7.00;;;;;;;28.01;39.64;99186.83;2167815;82;21068;-64
2021/06/16 11:40:26;;;;;;;19.25;7.72;;;;;;;28.06;37.24;99192.47;2138378;82;20997;-64
2021/06/16 11:43:26;;;;;;;20.72;7.28;;;;;;;28.17;37.56;99185.17;2167563;82;21534;-64
2021/06/16 11:46:27;;;;;;;20.33;6.97;;;;;;;28.25;37.33;99186.86;2168002;82;21051;-64
2021/06/16 11:49:29;;;;;;;19.73;6.67;;;;;;;28.37;37.07;99182.25;2167657;82;21012;-64
2021/06/16 11:52:29;;;;;;;;;;;;;;;28.33;37.12;99181.31;2170263;82;20992;-64
2021/06/16 11:55:29;;;;;;;19.93;6.70;;;;;;;28.47;36.45;99174.61;2167893;82;20095;-64
2021/06/16 11:58:30;;;;;;;19.83;7.07;;;;;;;28.50;36.70;99177.75;2167747;82;21092;-64
2021/06/16 12:01:31;;;;;;;19.35;7.10;;;;;;;28.55;36.30;99178.49;2167593;82;20996;-64
2021/06/16 12:04:31;;;;;;;18.67;6.70;;;;;;;28.49;37.20;99176.61;2167873;82;21049;-64
2021/06/16 12:07:32;;;;;;;22.87;7.10;;;;;;;28.37;36.12;99176.86;2167876;82;21499;-64
2021/06/16 12:10:33;;;;;;;19.23;7.08;;;;;;;28.23;36.26;99174.61;2167796;82;21037;-65
2021/06/16 12:13:33;;;;;;;19.63;7.10;;;;;;;28.15;37.25;99173.73;2167805;82;20945;-64
2021/06/16 12:16:34;;;;;;;21.33;6.60;;;;;;;28.24;36.94;99164.14;2167999;82;20965;-64
2021/06/16 12:19:34;;;;;;;19.57;6.63;;;;;;;28.31;36.32;99168.52;2167831;82;21053;-64
2021/06/16 12:22:35;;;;;;;19.73;6.73;;;;;;;28.37;35.80;99168.77;2167899;82;21032;-64
2021/06/16 12:25:35;;;;;;;21.47;7.10;;;;;;;28.24;35.85;99168.19;2167737;82;20957;-65
2021/06/16 12:28:35;;;;;;;20.03;7.43;;;;;;;28.22;36.59;99158.95;2167819;82;21468;-65
2021/06/16 12:31:45;;;;;;;20.83;7.43;;;;;;;28.25;36.98;99161.77;2167764;82;21041;-80
2021/06/16 12:37:40;;;;;;;19.75;7.33;;;;;;;28.10;38.08;99157.84;2167508;82;21023;-65
2021/06/16 12:40:41;;;;;;;20.43;7.85;;;;;;;28.23;38.10;99153.03;2167542;82;21582;-64
2021/06/16 12:43:41;;;;;;;22.20;8.83;;;;;;;28.17;39.29;99149.27;2167829;82;20977;-78
2021/06/16 12:46:42;;;;;;;20.33;7.13;;;;;;;28.20;39.41;99150.22;2167735;82;21000;-64
2021/06/16 12:49:42;;;;;;;19.93;7.60;;;;;;;28.12;38.82;99151.23;2167754;82;20989;-79
2021/06/16 12:52:43;;;;;;;20.13;7.40;;;;;;;28.28;39.15;99143.84;2167748;82;20961;-67
2021/06/16 12:55:43;;;;;;;20.57;8.13;;;;;;;28.56;39.59;99153.19;2167798;82;20988;-64
2021/06/16 12:58:44;;;;;;;20.37;7.90;;;;;;;28.49;38.96;99151.80;2167751;82;20981;-64
2021/06/16 13:01:44;;;;;;;19.30;7.50;;;;;;;28.31;38.13;99160.44;2167882;82;21025;-64
2021/06/16 13:04:45;;;;;;;19.80;7.57;;;;;;;28.35;38.48;99148.74;2167711;82;20941;-64
2021/06/16 13:07:45;;;;;;;20.40;8.23;;;;;;;28.48;37.57;99149.31;2167830;82;21471;-65
2021/06/16 13:10:46;;;;;;;18.90;7.92;;;;;;;28.41;37.70;99147.11;2167578;82;21927;-64
2021/06/16 13:13:47;;;;;;;18.90;7.27;;;;;;;28.30;38.80;99149.35;2167812;82;21051;-64
2021/06/16 13:16:47;;;;;;;20.77;8.47;;;;;;;28.14;38.84;99147.83;2168111;82;21049;-64
2021/06/16 13:19:47;;;;;;;21.80;8.33;;;;;;;28.25;39.31;99143.72;2167453;82;20997;-64
2021/06/16 13:22:48;;;;;;;20.73;7.67;;;;;;;28.65;39.11;99144.42;2167952;82;21017;-64
2021/06/16 13:25:49;;;;;;;21.97;7.60;;;;;;;28.61;38.85;99141.78;2167755;82;21036;-64
2021/06/16 13:28:49;;;;;;;20.52;7.40;;;;;;;28.77;37.45;99143.30;2167666;82;21013;-64
2021/06/16 13:31:50;;;;;;;22.13;7.27;;;;;;;29.38;35.93;99139.13;2167700;82;21519;-65
2021/06/16 13:34:50;;;;;;;19.90;7.90;;;;;;;29.76;37.09;99140.86;2167670;82;20961;-64
2021/06/16 13:37:51;;;;;;;19.15;7.75;;;;;;;29.69;36.88;99148.97;2167261;82;21013;-64
2021/06/16 13:40:52;;;;;;;21.03;7.87;;;;;;;30.40;37.14;99156.28;2167791;82;20977;-74
2021/06/16 13:43:53;;;;;;;21.60;7.65;;;;;;;30.40;35.94;99141.41;2167696;82;21009;-76
2021/06/16 13:46:53;;;;;;;19.77;7.27;;;;;;;30.10;35.95;99146.52;2167683;82;20985;-64
2021/06/16 13:49:53;;;;;;;20.33;7.13;;;;;;;29.99;36.19;99143.94;2167849;82;21026;-65
2021/06/16 13:52:54;;;;;;;19.80;7.20;;;;;;;30.50;35.93;99140.98;2167619;82;21554;-64
2021/06/16 13:55:54;;;;;;;19.67;7.10;;;;;;;30.35;34.35;99141.73;2167662;82;21020;-64
2021/06/16 13:58:55;;;;;;;19.27;7.50;;;;;;;30.31;34.72;99136.45;2167681;82;20977;-75
2021/06/16 14:01:56;;;;;;;18.62;7.33;;;;;;;30.41;35.29;99132.75;2167541;82;21078;-65
2021/06/16 14:04:56;;;;;;;18.30;6.77;;;;;;;30.22;34.62;99133.97;2167798;82;21053;-64
2021/06/16 14:07:57;;;;;;;19.35;7.08;;;;;;;30.24;34.57;99125.14;2167442;82;21120;-64